Time;durP1;ratioP1;P1;durP2;ratioP2;P2;SDS_P1;SDS_P2;PMS_P1;PMS_P2;Temp;Humidity;BMP_temperature;BMP_pressure;BME280_temperature;BME280_humidity;BME280_pressure;Samples;Min_cycle;Max_cycle;Signal;HPM_P1;HPM_P2
2022/05/04 00:00:09;;;;;;;2.83;1.70;;;10.90;1.00;;;;;;6220992;23;20520;-92
2022/05/04 00:02:42;;;;;;;3.63;2.05;;;10.80;1.00;;;;;;6221659;23;20019;-92
2022/05/04 00:05:09;;;;;;;4.35;1.52;;;10.90;1.00;;;;;;6220076;23;20352;-92
2022/05/04 00:07:39;;;;;;;4.60;2.13;;;10.80;1.00;;;;;;6245990;23;20040;-91
2022/05/04 00:10:07;;;;;;;3.85;2.10;;;10.80;1.00;;;;;;6220465;23;20026;-93
2022/05/04 00:12:34;;;;;;;5.40;2.00;;;10.70;1.00;;;;;;6221234;23;20016;-92
2022/05/04 00:15:02;;;;;;;6.07;1.73;;;10.80;1.00;;;;;;6262316;22;20028;-92
2022/05/04 00:17:33;;;;;;;4.38;2.10;;;10.80;1.00;;;;;;6234977;23;20461;-93
2022/05/04 00:20:01;;;;;;;4.10;2.33;;;10.70;1.00;;;;;;6221515;23;20028;-93
2022/05/04 00:22:28;;;;;;;4.13;2.05;;;10.70;1.00;;;;;;6238314;23;20020;-90
2022/05/04 00:24:55;;;;;;;7.18;1.73;;;10.80;1.00;;;;;;6236100;23;20020;-91
2022/05/04 00:27:23;;;;;;;7.47;2.03;;;10.70;1.00;;;;;;6220260;23;20024;-91
2022/05/04 00:29:50;;;;;;;3.53;2.10;;;10.70;1.00;;;;;;6219744;23;20027;-93
2022/05/04 00:32:18;;;;;;;3.70;1.50;;;10.70;1.00;;;;;;6220574;23;20078;-93
2022/05/04 00:34:45;;;;;;;2.00;1.48;;;10.70;1.00;;;;;;6244935;22;20047;-92
2022/05/04 00:37:12;;;;;;;6.38;2.47;;;10.70;1.00;;;;;;6245600;22;20020;-92
2022/05/04 00:39:39;;;;;;;3.58;1.67;;;10.70;1.00;;;;;;6245097;23;20016;-93
2022/05/04 00:42:13;;;;;;;4.30;2.13;;;10.70;1.00;;;;;;6219864;23;20368;-93
2022/05/04 00:44:42;;;;;;;9.90;1.73;;;10.60;1.00;;;;;;6220949;23;20024;-91
2022/05/04 00:47:09;;;;;;;3.67;1.77;;;10.70;1.00;;;;;;6224210;23;20039;-92
2022/05/04 00:49:37;;;;;;;5.10;1.67;;;10.60;1.00;;;;;;6225946;23;20023;-91
2022/05/04 00:52:04;;;;;;;5.57;1.83;;;10.60;1.00;;;;;;6222185;23;20072;-92
2022/05/04 00:54:35;;;;;;;4.38;2.00;;;10.70;1.00;;;;;;6222164;23;20020;-92
2022/05/04 00:57:04;;;;;;;2.85;1.40;;;10.60;1.00;;;;;;6222780;23;20072;-93
2022/05/04 00:59:32;;;;;;;6.85;1.77;;;10.60;1.00;;;;;;6221985;23;20061;-92
2022/05/04 01:01:59;;;;;;;2.53;1.40;;;10.50;1.00;;;;;;6222154;23;20020;-92
2022/05/04 01:04:27;;;;;;;3.35;1.65;;;10.50;1.00;;;;;;6221577;23;20019;-92
2022/05/04 01:06:54;;;;;;;6.38;1.95;;;10.50;1.00;;;;;;6221610;23;20020;-92
2022/05/04 01:09:21;;;;;;;3.47;1.70;;;10.40;1.00;;;;;;6246925;23;20004;-92
2022/05/04 01:11:48;;;;;;;6.75;2.17;;;10.40;1.00;;;;;;6221678;23;20343;-92
2022/05/04 01:14:17;;;;;;;2.95;1.70;;;10.50;1.00;;;;;;6246647;22;20051;-91
2022/05/04 01:16:48;;;;;;;3.65;1.65;;;10.40;1.00;;;;;;6246940;23;20012;-92
2022/05/04 01:19:16;;;;;;;2.90;1.77;;;10.50;1.00;;;;;;6248443;23;20020;-93
2022/05/04 01:21:43;;;;;;;3.85;1.40;;;10.50;1.00;;;;;;6247257;23;20009;-93
2022/05/04 01:24:10;;;;;;;4.70;1.90;;;10.50;1.00;;;;;;6222024;23;20070;-92
2022/05/04 01:26:37;;;;;;;6.40;1.90;;;10.50;1.00;;;;;;6221465;23;20040;-92
2022/05/04 01:29:05;;;;;;;4.40;1.73;;;10.40;1.00;;;;;;6246229;23;20443;-93
2022/05/04 01:31:32;;;;;;;5.80;2.33;;;10.20;1.00;;;;;;6221498;23;20081;-92
2022/05/04 01:34:00;;;;;;;4.25;2.00;;;10.20;1.00;;;;;;6246175;22;20047;-92
2022/05/04 01:36:27;;;;;;;2.38;1.52;;;10.30;1.00;;;;;;6221633;23;20020;-92
2022/05/04 01:38:55;;;;;;;6.82;2.03;;;10.40;1.00;;;;;;6246688;23;20162;-91
2022/05/04 01:44:08;;;;;;;3.28;1.73;;;10.40;1.00;;;;;;6246736;22;20016;-92
2022/05/04 01:46:35;;;;;;;3.25;2.10;;;10.40;1.00;;;;;;6221508;23;20439;-92
2022/05/04 01:49:02;;;;;;;3.85;1.48;;;10.40;1.00;;;;;;6246431;23;20431;-91
2022/05/04 01:51:29;;;;;;;6.45;2.05;;;10.40;1.00;;;;;;6221248;23;20027;-91
2022/05/04 01:53:56;;;;;;;5.28;2.03;;;10.40;1.00;;;;;;6245767;22;20012;-92
2022/05/04 01:56:23;;;;;;;5.28;2.05;;;10.40;1.00;;;;;;6197044;23;20012;-91
2022/05/04 01:58:51;;;;;;;3.10;1.40;;;10.30;1.00;;;;;;6220847;23;20016;-92
2022/05/04 02:01:18;;;;;;;2.63;1.65;;;10.20;1.00;;;;;;6221493;23;20031;-92
2022/05/04 02:03:46;;;;;;;5.30;1.67;;;10.30;1.00;;;;;;6220575;22;20078;-92
2022/05/04 02:06:14;;;;;;;4.65;1.73;;;10.30;1.00;;;;;;6220824;23;20024;-90
2022/05/04 02:08:41;;;;;;;4.25;1.95;;;10.30;1.00;;;;;;6246462;23;20024;-91
2022/05/04 02:11:09;;;;;;;2.97;1.73;;;10.30;1.00;;;;;;6220993;23;20020;-93
2022/05/04 02:13:36;;;;;;;4.32;1.85;;;10.20;1.00;;;;;;6246327;23;20143;-90
2022/05/04 02:16:05;;;;;;;2.70;1.40;;;10.20;1.00;;;;;;6246443;22;20436;-92
2022/05/04 02:18:33;;;;;;;3.40;1.50;;;10.30;1.00;;;;;;6245703;23;20020;-92
2022/05/04 02:21:00;;;;;;;5.90;1.73;;;10.20;1.00;;;;;;6245828;23;20097;-91
2022/05/04 02:23:28;;;;;;;2.50;1.35;;;10.20;1.00;;;;;;6246364;23;20032;-91
2022/05/04 02:25:55;;;;;;;4.93;1.55;;;10.20;1.00;;;;;;6246120;22;20020;-91
2022/05/04 02:28:22;;;;;;;4.15;1.77;;;10.20;1.00;;;;;;6246226;23;20494;-94
2022/05/04 02:30:49;;;;;;;4.78;1.42;;;10.20;1.00;;;;;;6221431;23;20026;-90
2022/05/04 02:33:16;;;;;;;6.13;1.70;;;10.20;1.00;;;;;;6221011;23;20444;-90
2022/05/04 02:38:34;;;;;;;3.40;1.30;;;10.10;1.00;;;;;;6246083;23;20292;-92
2022/05/04 02:41:02;;;;;;;3.88;1.70;;;10.10;1.00;;;;;;6246058;23;20468;-91
2022/05/04 02:43:29;;;;;;;7.78;2.20;;;10.10;1.00;;;;;;6245932;23;20078;-92
2022/05/04 02:45:57;;;;;;;3.58;1.75;;;10.10;1.00;;;;;;6245586;22;20107;-93
2022/05/04 02:48:24;;;;;;;2.33;1.30;;;10.10;1.00;;;;;;6245754;23;20444;-91
2022/05/04 02:50:51;;;;;;;3.58;1.65;;;10.10;1.00;;;;;;6245762;23;20348;-92
2022/05/04 02:53:19;;;;;;;2.47;1.73;;;10.10;1.00;;;;;;6220800;23;20012;-92
2022/05/04 02:55:46;;;;;;;3.35;1.80;;;10.10;1.00;;;;;;6220780;23;20099;-92
2022/05/04 02:58:15;;;;;;;6.03;1.75;;;10.00;1.00;;;;;;6245710;23;20372;-92
2022/05/04 03:00:42;;;;;;;2.10;1.67;;;10.00;1.00;;;;;;6245621;23;20328;-91
2022/05/04 03:03:10;;;;;;;3.30;1.60;;;10.00;1.00;;;;;;6245681;23;20106;-91
2022/05/04 03:05:37;;;;;;;5.05;1.55;;;10.00;1.00;;;;;;6196257;23;20020;-92
2022/05/04 03:08:05;;;;;;;4.22;1.77;;;10.00;1.00;;;;;;6220383;23;20024;-91
2022/05/04 03:11:54;;;;;;;3.50;2.03;;;9.90;1.00;;;;;;6246408;23;20055;-92
2022/05/04 03:13:19;;;;;;;3.58;2.15;;;9.90;1.00;;;;;;6248235;23;20016;-91
2022/05/04 03:15:46;;;;;;;5.50;1.45;;;9.90;1.00;;;;;;6266108;22;20016;-92
2022/05/04 03:18:14;;;;;;;4.28;1.63;;;9.90;1.00;;;;;;6251414;23;20016;-92
2022/05/04 03:20:41;;;;;;;6.00;1.95;;;9.80;1.00;;;;;;6252452;23;20084;-92
2022/05/04 03:23:08;;;;;;;2.97;1.70;;;9.80;1.00;;;;;;6240826;23;20016;-92
2022/05/04 03:25:39;;;;;;;3.72;1.90;;;9.80;1.00;;;;;;6227842;23;20051;-91
2022/05/04 03:28:07;;;;;;;4.70;2.42;;;9.80;1.00;;;;;;6246903;23;20024;-91
2022/05/04 03:30:34;;;;;;;5.50;1.67;;;9.80;1.00;;;;;;6246249;23;20012;-91
2022/05/04 03:33:01;;;;;;;5.60;1.60;;;9.80;1.00;;;;;;6248360;23;20016;-91
2022/05/04 03:35:28;;;;;;;4.22;1.48;;;9.70;1.00;;;;;;6225305;22;20023;-91
2022/05/04 03:37:55;;;;;;;3.65;1.85;;;9.70;1.00;;;;;;6228461;22;20015;-91
2022/05/04 03:40:22;;;;;;;2.50;1.65;;;9.70;1.00;;;;;;6251392;22;20015;-91
2022/05/04 03:42:52;;;;;;;3.97;1.83;;;9.70;1.00;;;;;;6252478;22;20383;-91
2022/05/04 03:45:20;;;;;;;3.60;1.70;;;9.70;1.00;;;;;;6225796;22;20028;-92
2022/05/04 03:47:47;;;;;;;3.53;1.40;;;9.70;1.00;;;;;;6225448;22;20015;-93
2022/05/04 03:50:14;;;;;;;3.35;1.70;;;9.70;1.00;;;;;;6225549;22;20026;-92
2022/05/04 03:52:42;;;;;;;3.53;2.35;;;9.60;1.00;;;;;;6277541;22;20023;-93
2022/05/04 03:55:09;;;;;;;3.92;1.95;;;9.60;1.00;;;;;;6277685;22;20008;-93
2022/05/04 03:57:36;;;;;;;3.25;1.65;;;9.60;1.00;;;;;;6251208;22;20020;-94
2022/05/04 04:00:06;;;;;;;7.38;2.45;;;9.60;1.00;;;;;;6251879;22;20026;-92
2022/05/04 04:02:38;;;;;;;5.80;2.28;;;9.60;1.00;;;;;;6226719;22;20468;-93
2022/05/04 04:05:09;;;;;;;2.63;1.63;;;9.60;1.00;;;;;;6250842;22;20070;-91
2022/05/04 04:07:49;;;;;;;4.50;1.95;;;9.60;1.00;;;;;;6255271;22;20024;-92
2022/05/04 04:10:16;;;;;;;5.63;2.13;;;9.50;1.00;;;;;;6248794;22;20038;-91
2022/05/04 04:12:51;;;;;;;3.50;1.73;;;9.50;1.00;;;;;;6247463;22;20102;-91
2022/05/04 04:15:18;;;;;;;2.50;1.55;;;9.50;1.00;;;;;;6225955;22;20020;-90
2022/05/04 04:18:02;;;;;;;3.30;1.80;;;9.50;1.00;;;;;;6252701;22;20020;-91
2022/05/04 04:23:24;;;;;;;3.47;1.65;;;9.50;1.00;;;;;;6250958;22;20094;-91
2022/05/04 04:26:25;;;;;;;2.60;1.38;;;9.40;1.00;;;;;;6225913;22;20016;-92
2022/05/04 04:30:10;;;;;;;4.95;1.90;;;9.40;1.00;;;;;;6159064;23;20353;-93
2022/05/04 04:36:19;;;;;;;6.25;2.22;;;9.40;1.00;;;;;;6159022;23;20027;-93
2022/05/04 04:39:37;;;;;;;3.58;2.40;;;9.40;1.00;;;;;;6169297;23;20021;-92
2022/05/04 04:42:57;;;;;;;;;;;;;;;;;;;;;
2022/05/04 04:46:04;;;;;;;3.70;1.67;;;9.30;1.00;;;;;;6159196;23;20021;-91
2022/05/04 04:49:25;;;;;;;5.47;1.60;;;9.30;1.00;;;;;;6167670;23;20040;-93
2022/05/04 04:52:15;;;;;;;6.50;1.85;;;9.30;1.00;;;;;;6159126;23;20428;-91
2022/05/04 04:54:51;;;;;;;5.23;1.70;;;9.30;1.00;;;;;;6158248;23;20092;-93
2022/05/04 04:57:21;;;;;;;7.18;2.05;;;9.30;1.00;;;;;;6189326;23;20257;-90
2022/05/04 04:59:49;;;;;;;7.60;2.00;;;9.30;1.00;;;;;;6194125;23;20048;-90
2022/05/04 05:02:17;;;;;;;3.08;1.38;;;9.30;1.00;;;;;;6218980;23;20046;-91
2022/05/04 05:04:44;;;;;;;4.63;2.13;;;9.30;1.00;;;;;;6193899;23;20542;-90
2022/05/04 05:07:11;;;;;;;3.83;2.22;;;9.30;1.00;;;;;;6194450;23;20032;-90
2022/05/04 05:09:38;;;;;;;3.65;1.92;;;9.20;1.00;;;;;;6245492;23;20432;-90
2022/05/04 05:12:06;;;;;;;4.82;2.00;;;9.30;1.00;;;;;;6246157;23;20058;-91
2022/05/04 05:17:19;;;;;;;4.97;2.13;;;9.20;1.00;;;;;;6219149;23;20027;-91
2022/05/04 05:19:46;;;;;;;3.83;2.38;;;9.20;1.00;;;;;;6219096;23;20043;-91
2022/05/04 05:22:13;;;;;;;3.35;2.22;;;9.20;1.00;;;;;;6219780;23;20047;-91
2022/05/04 05:24:40;;;;;;;5.63;1.85;;;9.20;1.00;;;;;;6219791;23;20016;-89
2022/05/04 05:27:10;;;;;;;3.75;1.35;;;9.20;1.00;;;;;;6219824;23;20024;-90
2022/05/04 05:29:37;;;;;;;5.25;1.73;;;9.20;1.00;;;;;;6219441;23;20395;-91
2022/05/04 05:32:04;;;;;;;4.25;2.00;;;9.20;1.00;;;;;;6221153;23;20020;-91
2022/05/04 05:34:33;;;;;;;6.75;2.10;;;9.30;1.00;;;;;;6220500;23;20439;-89
2022/05/04 05:37:01;;;;;;;6.95;2.03;;;9.30;1.00;;;;;;6217718;22;20020;-91
2022/05/04 05:39:28;;;;;;;3.25;2.30;;;9.20;1.00;;;;;;6251668;22;20066;-90
2022/05/04 05:41:55;;;;;;;4.32;2.20;;;9.20;1.00;;;;;;6226834;22;20097;-90
2022/05/04 05:44:24;;;;;;;4.68;1.88;;;9.20;1.00;;;;;;6221477;23;20024;-91
2022/05/04 05:46:51;;;;;;;3.65;1.75;;;9.30;1.00;;;;;;6225768;22;20098;-91
2022/05/04 05:49:19;;;;;;;7.20;1.95;;;9.30;1.00;;;;;;6246416;23;20039;-91
2022/05/04 05:51:46;;;;;;;3.22;2.28;;;9.30;1.00;;;;;;6249482;22;20016;-91
2022/05/04 05:54:13;;;;;;;2.80;1.65;;;9.30;1.00;;;;;;6221105;23;20019;-90
2022/05/04 05:56:40;;;;;;;4.18;1.88;;;9.30;1.00;;;;;;6247572;22;20107;-90
2022/05/04 05:59:07;;;;;;;4.90;1.95;;;9.40;1.00;;;;;;6246460;23;20008;-89
2022/05/04 06:01:34;;;;;;;5.43;1.98;;;9.40;1.00;;;;;;6246320;22;20060;-90
2022/05/04 06:04:01;;;;;;;3.33;1.52;;;9.40;1.00;;;;;;6246104;22;20355;-90
2022/05/04 06:06:29;;;;;;;5.38;1.90;;;9.40;1.00;;;;;;6221592;23;20016;-90
2022/05/04 06:08:57;;;;;;;4.65;1.92;;;9.50;1.00;;;;;;6251911;22;20024;-90
2022/05/04 06:11:24;;;;;;;3.55;2.05;;;9.50;1.00;;;;;;6221590;23;20043;-92
2022/05/04 06:13:52;;;;;;;4.55;1.98;;;9.60;1.00;;;;;;6286262;22;20020;-90
2022/05/04 06:16:19;;;;;;;3.03;1.90;;;9.70;1.00;;;;;;6229286;23;20016;-90
2022/05/04 06:18:47;;;;;;;2.75;1.80;;;9.70;1.00;;;;;;6249989;22;20020;-90
2022/05/04 06:21:14;;;;;;;3.10;1.48;;;9.70;1.00;;;;;;6225208;23;20107;-90
2022/05/04 06:23:41;;;;;;;4.72;2.00;;;9.80;1.00;;;;;;6203292;22;20469;-89
2022/05/04 06:26:08;;;;;;;2.72;1.98;;;9.80;1.00;;;;;;6196760;23;20015;-90
2022/05/04 06:28:35;;;;;;;3.95;1.90;;;9.80;1.00;;;;;;6273148;22;20026;-90
2022/05/04 06:34:10;;;;;;;4.85;1.17;;;9.80;1.00;;;;;;6276382;22;20431;-89
2022/05/04 06:36:41;;;;;;;3.35;1.77;;;9.80;1.00;;;;;;6278856;22;20392;-89
2022/05/04 06:39:10;;;;;;;3.58;1.58;;;9.90;1.00;;;;;;6246157;23;20463;-90
2022/05/04 06:41:38;;;;;;;2.67;1.65;;;9.90;1.00;;;;;;6221606;22;20017;-90
2022/05/04 06:44:06;;;;;;;2.70;2.15;;;9.90;1.00;;;;;;6277084;22;20015;-89
2022/05/04 06:46:40;;;;;;;4.97;1.33;;;9.90;1.00;;;;;;6221327;22;20020;-91
2022/05/04 06:49:09;;;;;;;9.35;2.53;;;9.90;1.00;;;;;;6221322;23;20044;-89
2022/05/04 06:51:36;;;;;;;4.75;2.25;;;9.90;1.00;;;;;;6221468;22;20103;-89
2022/05/04 06:54:03;;;;;;;3.47;1.90;;;9.90;1.00;;;;;;6220614;22;20085;-91
2022/05/04 06:56:49;;;;;;;5.10;2.30;;;9.90;1.00;;;;;;6228839;22;20027;-90
2022/05/04 06:59:17;;;;;;;8.43;1.83;;;9.90;1.00;;;;;;6195730;23;20020;-92
2022/05/04 07:01:44;;;;;;;4.47;1.60;;;9.90;1.00;;;;;;6275738;22;20043;-91
2022/05/04 07:04:11;;;;;;;6.18;1.98;;;9.90;1.00;;;;;;6220544;23;20535;-90
2022/05/04 07:06:38;;;;;;;8.48;1.88;;;9.90;1.00;;;;;;6197209;22;20054;-91
2022/05/04 07:09:09;;;;;;;4.80;1.70;;;10.00;1.00;;;;;;6245601;23;20024;-91
2022/05/04 07:11:36;;;;;;;3.47;1.75;;;10.00;1.00;;;;;;6246077;22;20070;-90
2022/05/04 07:14:03;;;;;;;4.22;1.65;;;10.00;1.00;;;;;;6277519;22;20491;-89
2022/05/04 07:16:31;;;;;;;3.42;1.60;;;9.90;1.00;;;;;;6220735;23;20333;-91
2022/05/04 07:19:12;;;;;;;2.58;1.45;;;10.00;1.00;;;;;;6241575;22;20069;-90
2022/05/04 07:21:39;;;;;;;3.58;2.00;;;10.00;1.00;;;;;;6251365;22;20386;-90
2022/05/04 07:24:06;;;;;;;4.30;1.60;;;10.00;1.00;;;;;;6220676;23;20020;-90
2022/05/04 07:26:33;;;;;;;4.28;1.30;;;10.00;1.00;;;;;;6220777;22;20024;-90
2022/05/04 07:29:01;;;;;;;5.38;1.50;;;10.00;1.00;;;;;;6245711;23;20031;-89
2022/05/04 07:31:28;;;;;;;6.95;2.00;;;10.00;1.00;;;;;;6221014;23;20082;-91
2022/05/04 07:33:55;;;;;;;5.88;2.10;;;10.00;1.00;;;;;;6250244;22;20443;-90
2022/05/04 07:36:22;;;;;;;2.55;1.77;;;10.00;1.00;;;;;;6245536;22;20043;-89
2022/05/04 07:38:50;;;;;;;6.82;2.20;;;10.00;1.00;;;;;;6249485;22;20016;-91
2022/05/04 07:44:02;;;;;;;3.75;1.90;;;10.00;1.00;;;;;;6252144;22;20016;-90
2022/05/04 07:46:29;;;;;;;3.55;1.90;;;10.00;1.00;;;;;;6221174;23;20030;-92
2022/05/04 07:48:56;;;;;;;6.13;1.80;;;10.00;1.00;;;;;;6225630;22;20024;-92
2022/05/04 07:51:23;;;;;;;7.18;1.95;;;10.00;1.00;;;;;;6245405;23;20036;-90
2022/05/04 07:53:51;;;;;;;2.30;1.50;;;10.00;1.00;;;;;;6248753;22;20436;-90
2022/05/04 07:56:18;;;;;;;4.75;1.67;;;10.00;1.00;;;;;;6245312;23;20431;-90
2022/05/04 07:58:45;;;;;;;3.70;1.63;;;10.00;1.00;;;;;;6248452;22;20094;-91
2022/05/04 08:06:43;;;;;;;4.10;1.52;;;10.00;1.00;;;;;;6274711;22;20019;-91
2022/05/04 08:09:10;;;;;;;2.90;1.83;;;10.10;1.00;;;;;;6245724;23;20103;-91
2022/05/04 08:11:37;;;;;;;4.72;1.58;;;10.10;1.00;;;;;;6220853;22;20043;-90
2022/05/04 08:14:04;;;;;;;4.63;1.88;;;10.10;1.00;;;;;;6219390;22;20046;-89
2022/05/04 08:16:31;;;;;;;3.92;2.33;;;10.10;1.00;;;;;;6245629;23;20039;-89
2022/05/04 08:19:00;;;;;;;6.40;2.13;;;10.10;1.00;;;;;;6245377;23;20042;-90
2022/05/04 08:21:27;;;;;;;8.95;2.53;;;10.10;1.00;;;;;;6245323;23;20401;-90
2022/05/04 08:23:54;;;;;;;6.85;2.42;;;10.10;1.00;;;;;;6248929;22;20421;-91
2022/05/04 08:26:23;;;;;;;5.70;2.03;;;10.20;1.00;;;;;;6220354;23;20031;-90
2022/05/04 08:28:51;;;;;;;6.25;1.67;;;10.20;1.00;;;;;;6248557;22;20329;-90
2022/05/04 08:31:19;;;;;;;3.17;1.45;;;10.10;1.00;;;;;;6225448;22;20019;-91
2022/05/04 08:33:47;;;;;;;4.78;1.90;;;10.20;1.00;;;;;;6247314;22;20020;-90
2022/05/04 08:36:14;;;;;;;5.03;2.05;;;10.20;1.00;;;;;;6245260;23;20016;-92
2022/05/04 08:38:40;;;;;;;3.80;1.95;;;10.20;1.00;;;;;;6221863;22;20020;-90
2022/05/04 08:41:08;;;;;;;4.30;1.83;;;10.30;1.00;;;;;;6219997;23;20016;-89
2022/05/04 08:43:35;;;;;;;5.95;2.03;;;10.20;1.00;;;;;;6219949;22;20048;-90
2022/05/04 08:46:04;;;;;;;4.68;1.77;;;10.30;1.00;;;;;;6245282;22;20099;-91
2022/05/04 08:48:32;;;;;;;3.78;1.90;;;10.30;1.00;;;;;;6220089;23;20107;-90
2022/05/04 08:51:06;;;;;;;5.75;2.13;;;10.30;1.00;;;;;;6244703;23;20012;-90
2022/05/04 08:53:34;;;;;;;6.63;1.88;;;10.30;1.00;;;;;;6245335;22;20336;-90
2022/05/04 08:56:01;;;;;;;5.45;2.20;;;10.30;1.00;;;;;;6244624;22;20040;-90
2022/05/04 08:58:39;;;;;;;3.88;1.98;;;10.30;1.00;;;;;;6221523;22;20090;-91
2022/05/04 09:01:06;;;;;;;4.43;2.05;;;10.40;1.00;;;;;;6245224;23;20090;-90
2022/05/04 09:03:33;;;;;;;4.30;2.15;;;10.40;1.00;;;;;;6219784;22;20044;-90
2022/05/04 09:06:00;;;;;;;2.85;1.55;;;10.40;1.00;;;;;;6245887;22;20047;-91
2022/05/04 09:09:03;;;;;;;5.80;1.80;;;10.40;1.00;;;;;;6251552;22;20106;-91
2022/05/04 09:11:32;;;;;;;7.22;1.90;;;10.40;1.00;;;;;;6224005;23;20016;-91
2022/05/04 09:14:06;;;;;;;4.00;1.90;;;10.40;1.00;;;;;;6227951;22;20084;-90
2022/05/04 09:16:33;;;;;;;10.68;2.58;;;10.40;1.00;;;;;;6227504;22;20020;-90
2022/05/04 09:19:05;;;;;;;8.93;1.88;;;10.40;1.00;;;;;;6280960;22;20015;-90
2022/05/04 09:21:33;;;;;;;7.38;2.35;;;10.40;1.00;;;;;;6248516;23;20024;-91
2022/05/04 09:24:00;;;;;;;8.02;1.95;;;10.40;1.00;;;;;;6240221;22;20047;-91
2022/05/04 09:26:27;;;;;;;8.23;2.20;;;10.50;1.00;;;;;;6251904;22;20514;-90
2022/05/04 09:29:02;;;;;;;6.03;2.10;;;10.60;1.00;;;;;;6226603;22;20026;-89
2022/05/04 09:31:30;;;;;;;4.10;2.05;;;10.60;1.00;;;;;;6221520;23;20081;-90
2022/05/04 09:34:00;;;;;;;6.93;2.10;;;10.60;1.00;;;;;;6221315;22;20022;-91
2022/05/04 09:36:34;;;;;;;5.45;2.30;;;10.60;1.00;;;;;;6247865;22;20020;-90
2022/05/04 09:45:12;;;;;;;2.60;2.13;;;10.90;1.00;;;;;;6278538;22;20016;-90
2022/05/04 09:47:45;;;;;;;6.32;1.73;;;11.00;1.00;;;;;;6247858;22;20103;-90
2022/05/04 09:50:15;;;;;;;3.65;1.95;;;11.00;1.00;;;;;;6246593;23;20470;-89
2022/05/04 09:52:52;;;;;;;3.20;1.98;;;11.00;1.00;;;;;;6248181;22;20500;-90
2022/05/04 09:55:24;;;;;;;7.93;1.92;;;11.20;1.00;;;;;;6246540;22;20020;-89
2022/05/04 09:57:53;;;;;;;7.38;1.77;;;11.30;1.00;;;;;;6277702;22;20073;-90
2022/05/04 10:00:22;;;;;;;8.68;2.25;;;11.40;1.00;;;;;;6246581;23;20024;-90
2022/05/04 10:02:58;;;;;;;3.72;2.03;;;11.40;1.00;;;;;;6251085;22;20528;-90
2022/05/04 10:05:26;;;;;;;4.88;2.15;;;11.50;1.00;;;;;;6247296;22;20356;-90
2022/05/04 10:07:53;;;;;;;4.85;2.00;;;11.60;1.00;;;;;;6250618;22;20027;-88
2022/05/04 10:10:21;;;;;;;3.42;1.60;;;11.70;1.00;;;;;;6246382;23;20027;-90
2022/05/04 10:12:48;;;;;;;5.78;1.73;;;11.90;1.00;;;;;;6249099;22;20098;-90
2022/05/04 10:15:18;;;;;;;4.10;1.88;;;12.00;1.00;;;;;;6220828;23;20024;-89
2022/05/04 10:17:54;;;;;;;2.70;1.75;;;12.20;1.00;;;;;;6274713;22;20497;-90
2022/05/04 10:20:30;;;;;;;3.97;1.92;;;12.30;1.00;;;;;;6246581;23;20495;-89
2022/05/04 10:23:01;;;;;;;7.05;1.60;;;12.40;1.00;;;;;;6245727;23;20024;-90
2022/05/04 10:25:34;;;;;;;7.32;2.20;;;12.60;1.00;;;;;;6271917;22;20069;-89
2022/05/04 10:28:10;;;;;;;7.68;1.65;;;12.80;1.00;;;;;;6220607;23;20051;-89
2022/05/04 10:30:56;;;;;;;3.63;1.55;;;12.80;1.00;;;;;;6221608;22;20028;-90
2022/05/04 10:33:30;;;;;;;5.40;1.88;;;12.60;1.00;;;;;;6245552;23;20016;-91
2022/05/04 10:36:12;;;;;;;5.47;1.83;;;12.60;1.00;;;;;;6226311;22;20023;-90
2022/05/04 10:38:43;;;;;;;2.97;1.63;;;12.60;1.00;;;;;;6278410;22;20390;-89
2022/05/04 10:41:11;;;;;;;5.22;1.67;;;12.80;1.00;;;;;;6245943;23;20020;-90
2022/05/04 10:43:50;;;;;;;3.53;1.92;;;12.90;1.00;;;;;;6246697;22;20054;-90
2022/05/04 10:46:20;;;;;;;2.22;1.70;;;12.90;1.00;;;;;;6245908;23;20016;-89
2022/05/04 10:48:59;;;;;;;3.80;1.48;;;13.00;1.00;;;;;;6227077;22;20049;-90
2022/05/04 10:51:28;;;;;;;4.35;1.85;;;13.10;1.00;;;;;;6246414;23;20115;-90
2022/05/04 10:54:16;;;;;;;5.68;1.92;;;13.10;1.00;;;;;;6250309;22;20022;-89
2022/05/04 10:56:52;;;;;;;9.98;1.92;;;13.20;1.00;;;;;;6248674;22;20435;-91
2022/05/04 10:59:37;;;;;;;3.53;1.92;;;13.30;1.00;;;;;;6245947;23;20016;-90
2022/05/04 11:02:12;;;;;;;3.38;1.58;;;13.20;1.00;;;;;;6221733;23;20051;-90
2022/05/04 11:04:40;;;;;;;4.38;1.75;;;13.40;1.00;;;;;;6247226;22;20046;-91
2022/05/04 11:07:09;;;;;;;4.28;2.15;;;13.40;1.00;;;;;;6245810;23;20024;-91
2022/05/04 11:09:42;;;;;;;5.03;2.35;;;13.50;1.00;;;;;;6246165;22;20420;-90
2022/05/04 11:12:11;;;;;;;4.22;1.83;;;13.50;1.00;;;;;;6245716;23;20021;-90
2022/05/04 11:14:39;;;;;;;6.35;1.73;;;13.50;1.00;;;;;;6246248;22;20387;-90
2022/05/04 11:17:14;;;;;;;3.13;1.98;;;13.50;1.00;;;;;;6245558;23;20394;-90
2022/05/04 11:19:44;;;;;;;5.15;1.75;;;13.50;1.00;;;;;;6223090;22;20020;-90
2022/05/04 11:22:16;;;;;;;5.72;1.95;;;13.60;1.00;;;;;;6246057;23;20451;-90
2022/05/04 11:25:03;;;;;;;4.15;1.90;;;13.70;1.00;;;;;;6245144;22;20020;-91
2022/05/04 11:27:31;;;;;;;2.95;1.98;;;13.80;1.00;;;;;;6220154;23;20027;-91
2022/05/04 11:29:58;;;;;;;4.18;1.80;;;13.80;1.00;;;;;;6245697;23;20027;-90
2022/05/04 11:32:27;;;;;;;3.17;1.58;;;14.00;1.00;;;;;;6245603;23;20016;-92
2022/05/04 11:34:56;;;;;;;3.55;1.80;;;14.00;1.00;;;;;;6224613;22;20020;-91
2022/05/04 11:37:23;;;;;;;2.72;1.45;;;14.10;1.00;;;;;;6220067;23;20012;-91
2022/05/04 11:39:50;;;;;;;8.23;2.08;;;14.20;1.00;;;;;;6276548;22;20039;-90
2022/05/04 11:42:18;;;;;;;3.75;1.70;;;14.30;1.00;;;;;;6220445;23;20016;-90
2022/05/04 11:44:47;;;;;;;2.88;1.83;;;14.20;1.00;;;;;;6247817;22;20070;-90
2022/05/04 11:47:15;;;;;;;4.18;1.80;;;14.40;1.00;;;;;;6244981;23;20020;-91
2022/05/04 11:49:42;;;;;;;4.55;1.73;;;14.40;1.00;;;;;;6222027;22;20026;-90
2022/05/04 11:52:10;;;;;;;2.95;1.63;;;14.50;1.00;;;;;;6244731;23;20161;-91
2022/05/04 11:54:37;;;;;;;6.97;2.20;;;14.60;1.00;;;;;;6220931;22;20024;-90
2022/05/04 11:57:14;;;;;;;4.32;2.15;;;14.80;1.00;;;;;;6196216;23;20026;-91
2022/05/04 11:59:41;;;;;;;2.50;1.95;;;14.80;1.00;;;;;;6221937;22;20329;-91
2022/05/04 12:02:08;;;;;;;4.13;2.42;;;14.80;1.00;;;;;;6245397;23;20035;-91
2022/05/04 12:04:36;;;;;;;3.75;2.20;;;14.80;1.00;;;;;;6247415;22;20495;-91
2022/05/04 12:07:04;;;;;;;3.08;2.00;;;14.80;1.00;;;;;;6226901;23;20136;-89
2022/05/04 12:09:31;;;;;;;3.60;1.95;;;14.90;1.00;;;;;;6276477;22;20016;-90
2022/05/04 12:11:59;;;;;;;4.10;1.90;;;15.00;1.00;;;;;;6245116;23;20352;-89
2022/05/04 12:14:29;;;;;;;6.30;2.03;;;15.20;1.00;;;;;;6248626;22;20027;-90
2022/05/04 12:16:56;;;;;;;3.58;1.70;;;15.30;1.00;;;;;;6255031;22;20027;-90
2022/05/04 12:19:23;;;;;;;4.13;1.90;;;15.40;1.00;;;;;;6244886;23;20458;-90
2022/05/04 12:21:52;;;;;;;3.45;1.77;;;15.30;1.00;;;;;;6249843;22;20089;-91
2022/05/04 12:24:20;;;;;;;2.30;1.52;;;15.30;1.00;;;;;;6220897;23;20016;-90
2022/05/04 12:26:48;;;;;;;7.30;1.92;;;15.40;1.00;;;;;;6223400;22;20024;-91
2022/05/04 12:34:49;;;;;;;5.47;2.60;;;15.70;1.00;;;;;;6248376;22;20070;-91
2022/05/04 12:37:16;;;;;;;3.00;1.85;;;15.80;1.00;;;;;;6244583;22;20391;-91
2022/05/04 12:39:44;;;;;;;3.05;1.90;;;15.90;1.00;;;;;;6222109;22;20024;-90
2022/05/04 12:42:14;;;;;;;4.07;2.20;;;15.90;1.00;;;;;;6276413;22;20046;-90
2022/05/04 12:44:49;;;;;;;4.35;1.77;;;16.00;1.00;;;;;;6221146;22;20020;-89
2022/05/04 12:47:18;;;;;;;3.22;1.92;;;16.10;1.00;;;;;;6244568;23;20016;-90
2022/05/04 12:49:47;;;;;;;3.85;1.65;;;16.20;1.00;;;;;;6222530;22;20016;-91
2022/05/04 12:52:15;;;;;;;6.22;1.90;;;16.20;1.00;;;;;;6244914;23;20096;-91
2022/05/04 12:54:42;;;;;;;3.05;1.95;;;16.30;1.00;;;;;;6221455;22;20020;-92
2022/05/04 12:57:09;;;;;;;5.30;2.05;;;16.30;1.00;;;;;;6244723;23;20111;-91
2022/05/04 12:59:37;;;;;;;2.58;1.55;;;16.40;1.00;;;;;;6220934;22;20043;-91
2022/05/04 13:02:09;;;;;;;6.13;1.75;;;16.30;1.00;;;;;;6245326;23;20047;-91
2022/05/04 13:04:36;;;;;;;3.38;1.73;;;16.40;1.00;;;;;;6245662;22;20130;-91
2022/05/04 13:07:04;;;;;;;3.10;1.90;;;16.50;1.00;;;;;;6219764;23;20051;-91
2022/05/04 13:09:35;;;;;;;4.03;1.90;;;16.40;1.00;;;;;;6220437;23;20020;-91
2022/05/04 13:12:12;;;;;;;2.67;1.67;;;16.40;1.00;;;;;;6245854;23;20020;-91
2022/05/04 13:14:54;;;;;;;4.38;1.77;;;16.60;1.00;;;;;;6248090;22;20386;-91
2022/05/04 13:17:22;;;;;;;2.05;1.85;;;16.70;1.00;;;;;;6244637;23;20044;-90
2022/05/04 13:19:49;;;;;;;3.50;1.80;;;16.70;1.00;;;;;;6249369;22;20028;-89
2022/05/04 13:22:16;;;;;;;3.42;1.77;;;16.80;1.00;;;;;;6219665;23;20020;-91
2022/05/04 13:24:44;;;;;;;2.67;1.77;;;16.80;1.00;;;;;;6222257;22;20020;-90
2022/05/04 13:27:11;;;;;;;4.20;1.80;;;16.90;1.00;;;;;;6219981;23;20398;-90
2022/05/04 13:29:38;;;;;;;2.35;1.80;;;17.00;1.00;;;;;;6220499;22;20329;-90
2022/05/04 13:32:05;;;;;;;3.45;1.73;;;17.00;1.00;;;;;;6194596;23;20020;-90
2022/05/04 13:34:34;;;;;;;4.47;2.08;;;17.00;1.00;;;;;;6244731;22;20415;-91
2022/05/04 13:37:01;;;;;;;4.57;2.05;;;17.10;1.00;;;;;;6219233;23;20103;-91
2022/05/04 13:39:28;;;;;;;7.03;2.38;;;17.20;1.00;;;;;;6219562;23;20055;-91
2022/05/04 13:41:55;;;;;;;5.03;1.70;;;17.20;1.00;;;;;;6170162;23;20337;-91
2022/05/04 13:44:22;;;;;;;5.43;1.92;;;17.20;1.00;;;;;;6244219;22;20030;-91
2022/05/04 13:46:50;;;;;;;8.68;1.77;;;17.30;1.00;;;;;;6244732;23;20494;-90
2022/05/04 13:49:23;;;;;;;2.17;2.00;;;17.20;1.00;;;;;;6243523;23;20020;-90
2022/05/04 13:54:37;;;;;;;4.28;2.10;;;17.40;1.00;;;;;;6247378;22;20432;-91